Latest Coastal Weather Observations for Evans Head

IDN60701

Issued at 3:11 am EST Sunday 5 July 2015 (issued every 10 minutes, with the page automatically refreshed every 10 minutes)

About coastal observations | Map of coastal stations | Coastal observations for NSW | Marine services | Other Formats
Station Details ID: 058212 Name: EVANS HEAD RAAF BOMBING RANGE AWS Lat: -29.18 Lon: 153.40 Height: 62.5 m
Data from the previous 72 hours. | See also: Recent months at Evans Head
Date/Time
EST
Temp

°C
Wind Pressure Rain
since 9am
mm
Weather Cloud Vis
km
Sea
Height
m
Swell
Dir
 
Speed
knots
Gust
knots
hPa Trend Height
m
Period
s
Dir
05/03:00am 12.3 W 6 10 1021.2 - 0.0 - - - - - - -
05/02:30am 11.3 NW 7 9 1021.2 - 0.0 - - - - - - -
05/02:00am 11.3 NW 8 13 1021.3 - 0.0 - - - - - - -
05/01:30am 11.1 NW 7 10 1021.4 - 0.0 - - - - - - -
05/01:00am 11.1 NW 6 9 1021.5 - 0.0 - - - - - - -
05/12:30am 11.1 NW 6 9 1021.6 - 0.0 - - - - - - -
05/12:00am 11.0 NW 7 9 1021.6 - 0.0 - - - - - - -
 
Date/Time
EST
Temp

°C
Wind Pressure Rain
since 9am
mm
Weather Cloud Vis
km
Sea
Height
m
Swell
Dir
 
Speed
knots
Gust
knots
hPa Trend Height
m
Period
s
Dir
04/11:30pm 10.5 NW 6 8 1021.5 - 0.0 - - - - - - -
04/11:00pm 10.5 NW 6 7 1021.6 - 0.0 - - - - - - -
04/10:30pm 10.8 NW 6 7 1021.5 - 0.0 - - - - - - -
04/10:00pm 11.4 NW 6 7 1021.6 - 0.0 - - - - - - -
04/09:30pm 11.9 NW 6 8 1021.5 - 0.0 - - - - - - -
04/09:00pm 12.4 NW 6 7 1021.4 - 0.0 - - - - - - -
04/08:30pm 13.0 NW 5 6 1021.4 - 0.0 - - - - - - -
04/08:00pm 13.5 NNW 5 5 1021.4 - 0.0 - - - - - - -
04/07:30pm 14.0 N 4 5 1021.4 - 0.0 - - - - - - -
04/07:00pm 14.8 NE 5 6 1021.2 - 0.0 - - - - - - -
04/06:30pm 14.2 NNE 5 6 1020.9 - 0.0 - - - - - - -
04/06:00pm 14.5 NE 5 6 1020.8 - 0.0 - - - - - - -
04/05:30pm 14.3 NNE 5 6 1020.6 - 0.0 - - - - - - -
04/05:00pm 15.1 NNE 4 5 1020.5 - 0.0 - - - - - - -
04/04:30pm 15.8 NE 4 6 1020.6 - 0.0 - - - - - - -
04/04:00pm 16.3 ENE 5 7 1020.6 - 0.0 - - - - - - -
04/03:30pm 17.1 ENE 5 7 1020.6 - 0.0 - - - - - - -
04/03:00pm 19.7 W 2 6 1020.7 - 0.0 - - - - - - -
04/02:30pm 19.4 WSW 4 7 1020.7 - 0.0 - - - - - - -
04/02:00pm 19.3 WSW 4 7 1020.7 - 0.0 - - - - - - -
04/01:30pm 19.0 W 5 8 1021.0 - 0.0 - - - - - - -
04/01:00pm 19.3 WSW 3 6 1021.4 - 0.0 - - - - - - -
04/12:30pm 19.1 SW 3 7 1021.9 - 0.0 - - - - - - -
04/12:00pm 18.6 W 4 7 1022.5 - 0.0 - - - - - - -
04/11:30am 17.5 SSW 4 7 1023.1 - 0.0 - - - - - - -
04/11:00am 17.1 SSW 5 8 1023.6 - 0.0 - - - - - - -
04/10:30am 16.2 WSW 5 7 1023.8 - 0.0 - - - - - - -
04/10:00am 15.2 SW 6 9 1024.0 - 0.0 - - - - - - -
04/09:30am 14.5 SW 7 10 1024.1 - 0.0 - - - - - - -
04/09:00am 13.6 SW 7 11 1024.0 - 0.0 - - - - - - -
04/08:30am 12.6 SW 7 12 1023.7 - 0.0 - - - - - - -
04/08:00am 11.7 SW 7 11 1023.6 - 0.0 - - - - - - -
04/07:30am 10.7 SW 8 11 1023.5 - 0.0 - - - - - - -
04/07:00am 10.2 WSW 8 10 1023.4 - 0.0 - - - - - - -
04/06:30am 10.0 SW 7 9 1023.1 - 0.0 - - - - - - -
04/06:00am 10.2 SW 7 9 1023.0 - 0.0 - - - - - - -
04/05:30am 10.3 SW 9 12 1022.7 - 0.0 - - - - - - -
04/05:00am 10.2 SW 9 11 1022.6 - 0.0 - - - - - - -
04/04:30am 10.0 SW 8 12 1022.7 - 0.0 - - - - - - -
04/04:00am 10.1 SW 9 12 1023.0 - 0.0 - - - - - - -
04/03:30am 10.6 SW 11 15 1023.1 - 0.0 - - - - - - -
04/03:00am 10.9 SW 10 14 1022.8 - 0.0 - - - - - - -
04/02:30am 11.3 SW 10 13 1022.8 - 0.0 - - - - - - -
04/02:00am 11.5 SW 11 14 1022.9 - 0.0 - - - - - - -
04/01:30am 11.5 SW 9 12 1023.1 - 0.0 - - - - - - -
04/01:00am 11.7 SW 10 15 1022.9 - 0.0 - - - - - - -
04/12:30am 11.5 SW 9 13 1023.1 - 0.0 - - - - - - -
04/12:00am 11.7 SSW 10 13 1023.3 - 0.0 - - - - - - -
 
Date/Time
EST
Temp

°C
Wind Pressure Rain
since 9am
mm
Weather Cloud Vis
km
Sea
Height
m
Swell
Dir
 
Speed
knots
Gust
knots
hPa Trend Height
m
Period
s
Dir
03/11:30pm 12.0 SSW 10 13 1023.5 - 0.0 - - - - - - -
03/11:00pm 11.9 SW 10 14 1023.7 - 0.0 - - - - - - -
03/10:30pm 12.1 SSW 10 13 1023.8 - 0.0 - - - - - - -
03/10:00pm 12.6 SSW 10 14 1023.8 - 0.0 - - - - - - -
03/09:30pm 13.2 SSW 11 15 1023.8 - 0.0 - - - - - - -
03/09:00pm 13.8 SSW 11 15 1023.7 - 0.0 - - - - - - -
03/08:30pm 13.6 SSW 10 13 1023.7 - 0.0 - - - - - - -
03/08:00pm 13.6 SSW 9 12 1023.7 - 0.0 - - - - - - -
03/07:30pm 13.0 SSW 9 13 1023.5 - 0.0 - - - - - - -
03/07:00pm 13.6 SSW 10 14 1023.1 - 0.0 - - - - - - -
03/06:30pm 14.1 S 10 14 1022.9 - 0.0 - - - - - - -
03/06:00pm 14.4 S 11 16 1022.6 - 0.0 - - - - - - -
03/05:30pm 14.7 SSW 13 18 1022.5 - 0.0 - - - - - - -
03/05:00pm 14.4 SSW 11 17 1022.4 - 0.0 - - - - - - -
03/04:30pm 14.9 SSW 13 19 1022.2 - 0.0 - - - - - - -
03/04:00pm 15.6 SSW 14 20 1022.1 - 0.0 - - - - - - -
03/03:30pm 16.0 S 14 21 1021.9 - 0.0 - - - - - - -
03/03:00pm 16.5 S 17 25 1021.7 - 0.0 - - - - - - -
03/02:30pm 17.1 S 15 21 1021.7 - 0.0 - - - - - - -
03/02:00pm 17.2 S 14 19 1021.6 - 0.0 - - - - - - -
03/01:30pm 17.0 S 11 17 1021.6 - 0.0 - - - - - - -
03/01:00pm 16.7 SSW 13 18 1021.8 - 0.0 - - - - - - -
03/12:30pm 16.5 SSW 12 17 1022.1 - 0.0 - - - - - - -
03/12:00pm 15.8 S 15 21 1022.4 - 0.0 - - - - - - -
03/11:30am 15.5 S 12 19 1022.7 - 0.0 - - - - - - -
03/11:00am 15.1 S 12 19 1023.0 - 0.0 - - - - - - -
03/10:30am 14.5 S 13 18 1023.3 - 0.0 - - - - - - -
03/10:00am 14.1 SSW 10 16 1023.4 - 0.0 - - - - - - -
03/09:30am 13.1 SW 8 12 1023.5 - 0.0 - - - - - - -
03/09:00am 12.1 SW 9 13 1023.3 - 0.0 - - - - - - -
03/08:30am 11.2 SW 10 13 1023.0 - 0.0 - - - - - - -
03/08:00am 10.0 SW 11 14 1022.8 - 0.0 - - - - - - -
03/07:30am 9.3 SW 11 13 1022.6 - 0.0 - - - - - - -
03/07:00am 8.7 SW 10 13 1022.3 - 0.0 - - - - - - -
03/06:30am 8.6 SW 10 13 1021.9 - 0.0 - - - - - - -
03/06:00am 8.7 SW 10 13 1021.5 - 0.0 - - - - - - -
03/05:30am 8.8 SW 10 13 1021.3 - 0.0 - - - - - - -
03/05:00am 9.1 SW 10 13 1021.0 - 0.0 - - - - - - -
03/04:30am 9.4 SSW 11 14 1020.8 - 0.0 - - - - - - -
03/04:00am 9.4 SW 11 13 1020.8 - 0.0 - - - - - - -
03/03:30am 9.6 SW 9 13 1020.8 - 0.0 - - - - - - -
03/03:00am 9.3 SW 11 15 1020.6 - 0.0 - - - - - - -
03/02:30am 9.2 SW 10 13 1020.6 - 0.0 - - - - - - -
03/02:00am 9.2 SW 10 13 1020.6 - 0.0 - - - - - - -
03/01:30am 9.5 SW 11 14 1020.7 - 0.0 - - - - - - -
03/01:00am 9.7 SW 10 13 1020.5 - 0.0 - - - - - - -
03/12:30am 9.7 SW 9 13 1020.3 - 0.0 - - - - - - -
03/12:00am 9.9 SSW 11 15 1020.4 - 0.0 - - - - - - -
 
Date/Time
EST
Temp

°C
Wind Pressure Rain
since 9am
mm
Weather Cloud Vis
km
Sea
Height
m
Swell
Dir
 
Speed
knots
Gust
knots
hPa Trend Height
m
Period
s
Dir
02/11:30pm 10.3 SW 10 14 1020.1 - 0.0 - - - - - - -
02/11:00pm 10.6 SW 10 15 1020.4 - 0.0 - - - - - - -
02/10:30pm 10.9 SW 12 18 1020.3 - 0.0 - - - - - - -
02/10:00pm 11.7 SSW 12 19 1020.0 - 0.0 - - - - - - -
02/09:30pm 11.5 SW 9 13 1019.6 - 0.0 - - - - - - -
02/09:00pm 12.1 SW 8 11 1019.2 - 0.0 - - - - - - -
02/08:30pm 12.9 WSW 9 13 1018.8 - 0.0 - - - - - - -
02/08:00pm 12.9 W 8 12 1018.0 - 0.0 - - - - - - -
02/07:30pm 13.4 WNW 8 12 1017.5 - 0.0 - - - - - - -
02/07:00pm 13.7 WNW 8 10 1017.6 - 0.0 - - - - - - -
02/06:30pm 13.8 W 7 11 1017.3 - 0.0 - - - - - - -
02/06:00pm 12.7 WNW 7 8 1017.1 - 0.0 - - - - - - -
02/05:30pm 13.7 WNW 7 9 1016.9 - 0.0 - - - - - - -
02/05:00pm 14.3 W 7 9 1016.8 - 0.0 - - - - - - -
02/04:30pm 15.0 W 7 10 1016.8 - 0.0 - - - - - - -
02/04:00pm 16.9 W 7 10 1016.7 - 0.0 - - - - - - -
02/03:30pm 18.1 W 5 11 1016.5 - 0.0 - - - - - - -
02/03:00pm 19.8 WNW 7 11 1016.7 - 0.0 - - - - - - -
02/02:30pm 19.3 WNW 5 8 1016.5 - 0.0 - - - - - - -
02/02:00pm 19.2 W 5 10 1017.0 - 0.0 - - - - - - -
02/01:30pm 17.7 WNW 5 8 1017.1 - 0.0 - - - - - - -
02/01:00pm 18.7 W 5 9 1017.6 - 0.0 - - - - - - -
02/12:30pm 18.0 WNW 7 11 1018.0 - 0.0 - - - - - - -
02/12:00pm 18.0 W 6 9 1018.4 - 0.0 - - - - - - -
02/11:30am 19.2 WNW 7 11 1018.8 - 0.0 - - - - - - -
02/11:00am 19.0 WNW 8 11 1019.8 - 0.0 - - - - - - -
02/10:30am 17.2 WNW 7 11 1020.4 - 0.0 - - - - - - -
02/10:00am 16.2 WNW 8 13 1020.6 - 0.0 - - - - - - -
02/09:30am 15.6 WNW 7 11 1020.8 - 0.0 - - - - - - -
02/09:00am 14.6 WNW 7 12 1021.2 - 0.0 - - - - - - -
02/08:30am 13.4 WNW 8 12 1021.0 - 0.0 - - - - - - -
02/08:00am 12.3 WNW 6 8 1020.9 - 0.0 - - - - - - -
02/07:30am 10.9 NW 5 6 1021.0 - 0.0 - - - - - - -
02/07:00am 10.9 WNW 5 6 1020.8 - 0.0 - - - - - - -
02/06:30am 11.5 W 5 8 1020.5 - 0.0 - - - - - - -
02/06:00am 11.5 W 6 8 1020.3 - 0.0 - - - - - - -
02/05:30am 10.8 NW 5 6 1019.8 - 0.0 - - - - - - -
02/05:00am 12.3 WSW 5 6 1019.8 - 0.0 - - - - - - -
02/04:30am 12.5 SW 4 6 1019.6 - 0.0 - - - - - - -
02/04:00am 12.8 WSW 6 7 1020.1 - 0.0 - - - - - - -
02/03:30am 13.0 WSW 6 8 1020.6 - 0.0 - - - - - - -

Other Formats:

Comma delimited format used in spreadsheet applications
http://www.bom.gov.au/fwo/IDN60701/IDN60701.94598.axf

JavaScript Object Notation format (JSON) in row-major order
http://www.bom.gov.au/fwo/IDN60701/IDN60701.94598.json